Time;durP1;ratioP1;P1;durP2;ratioP2;P2;SDS_P1;SDS_P2;PMS_P1;PMS_P2;Temp;Humidity;BMP_temperature;BMP_pressure;BME280_temperature;BME280_humidity;BME280_pressure;Samples;Min_cycle;Max_cycle;Signal;HPM_P1;HPM_P2
2023/07/26 00:02:21;;;;;;;9.05;2.03;;;13.20;99.90;;;;;;5035372;28;20068;-61
2023/07/26 00:04:46;;;;;;;4.20;1.88;;;13.30;99.90;;;;;;5034051;28;20040;-61
2023/07/26 00:07:12;;;;;;;5.88;1.98;;;13.40;99.90;;;;;;5033799;28;20440;-62
2023/07/26 00:09:37;;;;;;;6.45;1.90;;;13.50;99.90;;;;;;5035847;28;20040;-58
2023/07/26 00:12:03;;;;;;;4.82;2.13;;;13.50;99.90;;;;;;5033526;28;20030;-61
2023/07/26 00:14:29;;;;;;;2.78;1.92;;;13.60;99.90;;;;;;5033411;28;20493;-60
2023/07/26 00:16:55;;;;;;;3.28;2.20;;;13.60;99.90;;;;;;5034923;28;20061;-59
2023/07/26 00:19:23;;;;;;;7.68;2.03;;;13.60;99.90;;;;;;5032223;28;20033;-59
2023/07/26 00:21:49;;;;;;;4.25;2.03;;;13.60;99.90;;;;;;5036850;28;20033;-57
2023/07/26 00:24:14;;;;;;;6.82;2.25;;;13.70;99.90;;;;;;5047002;28;20029;-63
2023/07/26 00:26:40;;;;;;;4.43;2.13;;;13.70;99.90;;;;;;5031160;28;20029;-63
2023/07/26 00:29:06;;;;;;;12.25;2.42;;;13.70;99.90;;;;;;5042412;28;20040;-63
2023/07/26 00:31:31;;;;;;;6.00;2.13;;;13.70;99.90;;;;;;5035178;28;20082;-63
2023/07/26 00:33:57;;;;;;;5.65;2.45;;;13.70;99.90;;;;;;5030325;28;20032;-64
2023/07/26 00:36:22;;;;;;;7.78;2.40;;;13.70;99.90;;;;;;5033542;28;20527;-64
2023/07/26 00:38:48;;;;;;;7.18;2.20;;;13.80;99.90;;;;;;5031002;28;20058;-63
2023/07/26 00:41:13;;;;;;;5.50;1.92;;;13.80;99.90;;;;;;5036021;28;20022;-63
2023/07/26 00:43:39;;;;;;;5.40;2.50;;;13.80;99.90;;;;;;5040616;28;20045;-64
2023/07/26 00:46:06;;;;;;;7.20;2.22;;;13.80;99.90;;;;;;5032914;28;20025;-64
2023/07/26 00:48:33;;;;;;;6.28;2.53;;;13.80;99.90;;;;;;5031858;28;20028;-64
2023/07/26 00:51:00;;;;;;;9.52;2.60;;;13.80;99.90;;;;;;5035822;28;20032;-63
2023/07/26 00:53:26;;;;;;;10.15;2.38;;;13.80;99.90;;;;;;5035106;28;20026;-63
2023/07/26 00:55:53;;;;;;;5.28;2.15;;;13.90;99.90;;;;;;5026994;28;20413;-63
2023/07/26 00:58:19;;;;;;;4.85;1.95;;;13.90;99.90;;;;;;5036597;28;20064;-64
2023/07/26 01:00:45;;;;;;;9.70;2.53;;;13.90;99.90;;;;;;5033364;28;20057;-62
2023/07/26 01:03:10;;;;;;;9.35;2.35;;;13.90;99.90;;;;;;5029347;28;20037;-63
2023/07/26 01:06:13;;;;;;;6.47;2.17;;;14.00;99.90;;;;;;5034678;28;20108;-63
2023/07/26 01:08:56;;;;;;;2.08;1.80;;;14.00;99.90;;;;;;5027752;28;20095;-60
2023/07/26 01:11:44;;;;;;;4.95;2.10;;;14.10;99.90;;;;;;5032393;28;20064;-63
2023/07/26 01:14:20;;;;;;;3.65;2.03;;;14.10;99.90;;;;;;5033827;28;20033;-63
2023/07/26 01:16:46;;;;;;;9.52;2.53;;;14.10;99.90;;;;;;5026930;28;20026;-64
2023/07/26 01:19:12;;;;;;;2.92;1.85;;;14.00;99.90;;;;;;5034020;28;20029;-64
2023/07/26 01:21:37;;;;;;;4.97;2.20;;;14.00;99.90;;;;;;5039135;28;20098;-64
2023/07/26 01:24:03;;;;;;;3.22;2.15;;;14.00;99.90;;;;;;5030231;28;20049;-64
2023/07/26 01:26:29;;;;;;;6.40;2.25;;;14.00;99.90;;;;;;5036993;28;20056;-63
2023/07/26 01:28:55;;;;;;;7.32;2.28;;;14.00;99.90;;;;;;5033378;28;20371;-64
2023/07/26 01:31:23;;;;;;;5.22;2.50;;;14.00;99.90;;;;;;5038985;28;20036;-64
2023/07/26 01:33:51;;;;;;;4.70;2.20;;;14.00;99.90;;;;;;5028824;28;20385;-62
2023/07/26 01:36:19;;;;;;;3.90;2.47;;;13.90;99.90;;;;;;5035481;28;20028;-63
2023/07/26 01:38:46;;;;;;;5.63;2.83;;;13.90;99.90;;;;;;5036828;28;20034;-63
2023/07/26 01:41:12;;;;;;;8.63;3.03;;;13.90;99.90;;;;;;5036552;28;20029;-63
2023/07/26 01:43:38;;;;;;;5.25;2.22;;;13.90;99.90;;;;;;5030438;28;20034;-63
2023/07/26 01:46:03;;;;;;;9.50;2.53;;;13.90;99.90;;;;;;5029530;28;20017;-63
2023/07/26 01:48:29;;;;;;;6.43;2.40;;;14.00;99.90;;;;;;5039751;28;20488;-63
2023/07/26 01:50:54;;;;;;;6.03;2.47;;;13.90;99.90;;;;;;5030774;28;20367;-64
2023/07/26 01:53:20;;;;;;;4.22;2.35;;;13.90;99.90;;;;;;5037306;28;20542;-63
2023/07/26 01:55:46;;;;;;;6.13;3.00;;;13.90;99.90;;;;;;5036552;28;20037;-63
2023/07/26 01:58:12;;;;;;;4.22;2.30;;;13.90;99.90;;;;;;5062236;28;20327;-62
2023/07/26 02:00:37;;;;;;;5.10;2.80;;;13.90;99.90;;;;;;5025137;28;20028;-63
2023/07/26 02:03:03;;;;;;;6.28;3.00;;;13.80;99.90;;;;;;5038953;28;20026;-64
2023/07/26 02:05:28;;;;;;;3.63;2.45;;;13.80;99.90;;;;;;5036356;28;20029;-64
2023/07/26 02:07:54;;;;;;;10.32;3.22;;;13.70;99.90;;;;;;5034678;28;20026;-64
2023/07/26 02:10:20;;;;;;;4.63;3.15;;;13.70;99.90;;;;;;5040199;28;20029;-63
2023/07/26 02:12:45;;;;;;;5.65;2.30;;;13.70;99.90;;;;;;5036366;28;20040;-64
2023/07/26 02:15:11;;;;;;;6.88;3.00;;;13.70;99.90;;;;;;5033773;28;20405;-64
2023/07/26 02:17:36;;;;;;;7.50;2.65;;;13.80;99.90;;;;;;5039562;28;20038;-64
2023/07/26 02:20:04;;;;;;;5.18;2.50;;;13.70;99.90;;;;;;5038360;28;20033;-64
2023/07/26 02:22:29;;;;;;;6.85;2.83;;;13.80;99.90;;;;;;5040932;28;20032;-64
2023/07/26 02:24:55;;;;;;;5.55;2.80;;;13.80;99.90;;;;;;5031092;28;20486;-64
2023/07/26 02:27:20;;;;;;;4.03;2.38;;;13.80;99.90;;;;;;5042671;28;20037;-64
2023/07/26 02:29:46;;;;;;;7.35;3.40;;;13.80;99.90;;;;;;5026970;28;20030;-63
2023/07/26 02:32:11;;;;;;;7.57;3.35;;;13.80;99.90;;;;;;5036271;28;20028;-64
2023/07/26 02:34:37;;;;;;;10.25;3.90;;;13.80;99.90;;;;;;5030564;28;20489;-62
2023/07/26 02:37:04;;;;;;;6.18;3.00;;;13.80;99.90;;;;;;5036650;28;20169;-64
2023/07/26 02:39:29;;;;;;;8.10;3.20;;;13.80;99.90;;;;;;5035472;28;20033;-63
2023/07/26 02:41:55;;;;;;;4.43;2.72;;;13.80;99.90;;;;;;5041421;28;20040;-64
2023/07/26 02:44:20;;;;;;;12.65;3.20;;;13.80;99.90;;;;;;5030711;28;20090;-64
2023/07/26 02:46:46;;;;;;;9.63;3.20;;;13.70;99.90;;;;;;5034592;28;20029;-64
2023/07/26 02:49:11;;;;;;;4.32;2.72;;;13.70;99.90;;;;;;5037870;28;20025;-63
2023/07/26 02:51:37;;;;;;;7.47;3.10;;;13.60;99.90;;;;;;5033860;28;20032;-64
2023/07/26 02:54:02;;;;;;;9.23;2.90;;;13.60;99.90;;;;;;5031028;28;20028;-64
2023/07/26 02:56:28;;;;;;;6.32;2.92;;;13.60;99.90;;;;;;5022717;28;20037;-64
2023/07/26 02:58:54;;;;;;;6.28;3.15;;;13.60;99.90;;;;;;5032784;28;20433;-64
2023/07/26 03:01:19;;;;;;;10.30;3.47;;;13.50;99.90;;;;;;5035233;28;20025;-64
2023/07/26 03:03:45;;;;;;;7.45;3.50;;;13.50;99.90;;;;;;5036828;28;20100;-64
2023/07/26 03:06:11;;;;;;;7.57;3.25;;;13.50;99.90;;;;;;5036163;28;20017;-63
2023/07/26 03:08:37;;;;;;;6.97;3.50;;;13.50;99.90;;;;;;5036880;28;20017;-63
2023/07/26 03:11:02;;;;;;;6.95;3.70;;;13.50;99.90;;;;;;5021449;28;20062;-64
2023/07/26 03:13:27;;;;;;;4.97;3.67;;;13.50;99.90;;;;;;5037986;28;20045;-64
2023/07/26 03:15:53;;;;;;;7.55;3.80;;;13.50;99.90;;;;;;5029298;28;20432;-64
2023/07/26 03:18:19;;;;;;;9.65;4.28;;;13.50;99.90;;;;;;5041670;28;21704;-64
2023/07/26 03:20:46;;;;;;;8.00;4.22;;;13.50;99.90;;;;;;5029629;28;20037;-63
2023/07/26 03:23:12;;;;;;;8.52;3.78;;;13.50;99.90;;;;;;5034408;28;20037;-64
2023/07/26 03:25:37;;;;;;;6.78;3.72;;;13.50;99.90;;;;;;5023036;28;20030;-64
2023/07/26 03:28:03;;;;;;;9.93;4.00;;;13.40;99.90;;;;;;5037703;28;20037;-64
2023/07/26 03:30:29;;;;;;;13.10;4.70;;;13.40;99.90;;;;;;5027452;28;20022;-63
2023/07/26 03:32:54;;;;;;;10.63;4.18;;;13.40;99.90;;;;;;5041443;28;20029;-62
2023/07/26 03:35:20;;;;;;;10.23;4.65;;;13.40;99.90;;;;;;5025630;28;20059;-64
2023/07/26 03:37:46;;;;;;;7.95;4.07;;;13.50;99.90;;;;;;5036252;28;20025;-63
2023/07/26 03:40:11;;;;;;;12.43;4.57;;;13.50;99.90;;;;;;5024569;28;20030;-63
2023/07/26 03:42:37;;;;;;;6.78;4.43;;;13.50;99.90;;;;;;5034265;28;20033;-64
2023/07/26 03:45:03;;;;;;;13.10;4.88;;;13.50;99.90;;;;;;5028619;28;20025;-63
2023/07/26 03:47:28;;;;;;;11.05;5.00;;;13.50;99.90;;;;;;5038563;28;20025;-64
2023/07/26 03:49:54;;;;;;;14.60;4.55;;;13.50;99.90;;;;;;5031540;28;20029;-64
2023/07/26 03:52:19;;;;;;;8.82;4.40;;;13.50;99.90;;;;;;5041554;28;20087;-64
2023/07/26 03:54:45;;;;;;;12.75;5.40;;;13.60;99.90;;;;;;5026652;28;20029;-64
2023/07/26 03:57:10;;;;;;;7.40;4.53;;;13.60;99.90;;;;;;5024147;28;20031;-64
2023/07/26 03:59:36;;;;;;;10.13;4.50;;;13.60;99.90;;;;;;5034821;28;20044;-66
2023/07/26 04:02:01;;;;;;;10.35;5.00;;;13.60;99.90;;;;;;5031081;28;20029;-64
2023/07/26 04:04:27;;;;;;;9.57;5.15;;;13.70;99.90;;;;;;5028196;28;20057;-64
2023/07/26 04:06:53;;;;;;;7.65;5.22;;;13.80;99.90;;;;;;5032413;28;20110;-64
2023/07/26 04:09:18;;;;;;;8.32;4.55;;;13.80;99.90;;;;;;5036022;28;20065;-62
2023/07/26 04:11:44;;;;;;;8.93;4.20;;;13.90;99.90;;;;;;5028362;28;20033;-64
2023/07/26 04:14:09;;;;;;;7.53;4.57;;;13.90;99.90;;;;;;5037706;28;20057;-63
2023/07/26 04:16:35;;;;;;;9.18;4.85;;;13.90;99.90;;;;;;5024027;28;20030;-63
2023/07/26 04:19:00;;;;;;;8.20;4.95;;;13.90;99.90;;;;;;5034104;28;20030;-64
2023/07/26 04:21:26;;;;;;;9.45;5.03;;;13.90;99.90;;;;;;5031473;28;20026;-63
2023/07/26 04:23:51;;;;;;;12.00;4.88;;;13.90;99.90;;;;;;5034048;28;20029;-63
2023/07/26 04:26:17;;;;;;;10.70;5.28;;;14.00;99.90;;;;;;5026655;28;20034;-64
2023/07/26 04:28:43;;;;;;;10.50;4.18;;;14.00;99.90;;;;;;5038847;28;20051;-64
2023/07/26 04:31:08;;;;;;;13.95;5.00;;;14.10;99.90;;;;;;5025986;28;20517;-64
2023/07/26 04:33:34;;;;;;;8.13;3.88;;;14.20;99.90;;;;;;5033533;28;20030;-63
2023/07/26 04:35:59;;;;;;;5.18;3.80;;;14.20;99.90;;;;;;5027355;28;20543;-64
2023/07/26 04:38:25;;;;;;;10.70;4.32;;;14.30;99.90;;;;;;5036004;28;20443;-62
2023/07/26 04:40:51;;;;;;;7.57;3.22;;;14.30;99.90;;;;;;5030425;28;20100;-64
2023/07/26 04:43:19;;;;;;;5.78;3.90;;;14.30;99.90;;;;;;5033746;28;20115;-64
2023/07/26 04:45:49;;;;;;;6.22;2.92;;;14.40;99.90;;;;;;5027621;28;20496;-63
2023/07/26 04:48:16;;;;;;;7.45;3.85;;;14.30;99.90;;;;;;5039807;28;20029;-63
2023/07/26 04:50:43;;;;;;;4.63;2.90;;;14.30;99.90;;;;;;5024544;28;20417;-63
2023/07/26 04:53:08;;;;;;;4.47;2.75;;;14.30;99.90;;;;;;5033556;28;20489;-63
2023/07/26 04:55:43;;;;;;;5.15;3.20;;;14.30;99.90;;;;;;5026229;28;20053;-64
2023/07/26 04:58:09;;;;;;;7.97;3.53;;;14.30;99.90;;;;;;5034212;28;20033;-64
2023/07/26 05:00:38;;;;;;;6.43;3.40;;;14.30;99.90;;;;;;5030320;28;20033;-64
2023/07/26 05:03:04;;;;;;;6.90;3.13;;;14.10;99.90;;;;;;5031122;28;20404;-64
2023/07/26 05:05:30;;;;;;;6.95;3.42;;;14.10;99.90;;;;;;5023409;28;20029;-59
2023/07/26 05:07:55;;;;;;;8.73;2.72;;;14.10;99.90;;;;;;5031549;28;20029;-59
2023/07/26 05:10:21;;;;;;;12.52;3.63;;;14.20;99.90;;;;;;5033917;28;20052;-59
2023/07/26 05:12:46;;;;;;;6.03;3.13;;;14.20;99.90;;;;;;5030688;28;20060;-60
2023/07/26 05:15:12;;;;;;;6.43;2.92;;;14.20;99.90;;;;;;5035844;28;20029;-59
2023/07/26 05:17:37;;;;;;;4.72;3.00;;;14.20;99.90;;;;;;5032253;28;20037;-57
2023/07/26 05:20:03;;;;;;;7.88;3.05;;;14.20;99.90;;;;;;5030526;28;20046;-60
2023/07/26 05:22:29;;;;;;;9.48;3.35;;;14.20;99.90;;;;;;5033426;28;20112;-60
2023/07/26 05:24:54;;;;;;;14.82;3.85;;;14.20;99.90;;;;;;5031808;28;20040;-59
2023/07/26 05:27:20;;;;;;;8.43;3.22;;;14.20;99.90;;;;;;5031421;28;20035;-58
2023/07/26 05:29:45;;;;;;;4.57;3.47;;;14.30;99.90;;;;;;5034650;28;20022;-58
2023/07/26 05:32:11;;;;;;;7.35;3.22;;;14.40;99.90;;;;;;5030425;28;20021;-60
2023/07/26 05:34:37;;;;;;;7.90;3.30;;;14.50;99.90;;;;;;5030972;28;20688;-57
2023/07/26 05:37:03;;;;;;;7.05;3.00;;;14.50;99.90;;;;;;5030519;28;20035;-58
2023/07/26 05:39:29;;;;;;;7.97;3.00;;;14.60;99.90;;;;;;5034724;28;20100;-58
2023/07/26 05:41:55;;;;;;;11.50;3.95;;;14.70;99.90;;;;;;5024724;28;20033;-59
2023/07/26 05:44:20;;;;;;;6.72;3.08;;;14.70;99.90;;;;;;5029916;28;20032;-58
2023/07/26 05:46:46;;;;;;;12.48;4.22;;;14.70;99.90;;;;;;5031644;28;20032;-58
2023/07/26 05:49:11;;;;;;;5.63;3.05;;;14.70;99.90;;;;;;5032297;28;20025;-59
2023/07/26 05:51:37;;;;;;;8.18;3.63;;;14.80;99.90;;;;;;5037429;28;20026;-57
2023/07/26 05:54:03;;;;;;;10.60;3.47;;;14.90;99.90;;;;;;5032614;28;20029;-61
2023/07/26 05:56:28;;;;;;;8.77;3.55;;;15.00;99.90;;;;;;5018806;28;20050;-54
2023/07/26 05:58:54;;;;;;;6.80;3.60;;;15.00;99.90;;;;;;5026094;28;20592;-59
2023/07/26 06:01:19;;;;;;;9.70;3.25;;;15.10;99.90;;;;;;5033341;28;20029;-57
2023/07/26 06:03:45;;;;;;;6.80;2.67;;;15.20;99.90;;;;;;5028070;28;20068;-58
2023/07/26 06:06:11;;;;;;;6.68;3.22;;;15.30;99.90;;;;;;5032344;28;20068;-60
2023/07/26 06:08:36;;;;;;;9.32;3.13;;;15.20;99.90;;;;;;5031526;28;20135;-59
2023/07/26 06:11:02;;;;;;;4.40;3.00;;;15.20;99.90;;;;;;5024389;28;20512;-57
2023/07/26 06:13:28;;;;;;;5.32;2.88;;;15.30;99.90;;;;;;5030507;28;20034;-58
2023/07/26 06:15:53;;;;;;;4.15;2.78;;;15.30;99.90;;;;;;5025994;28;20544;-59
2023/07/26 06:18:19;;;;;;;9.13;2.78;;;;;;;;;;5030422;28;20676;-57
2023/07/26 06:20:45;;;;;;;7.60;2.83;;;;;;;;;;5028946;28;20037;-59
2023/07/26 06:23:11;;;;;;;6.60;2.85;;;;;;;;;;5030057;28;20040;-58
2023/07/26 06:25:37;;;;;;;11.43;3.83;;;15.30;99.90;;;;;;5030487;28;20568;-56
2023/07/26 06:28:03;;;;;;;8.43;4.38;;;15.40;99.90;;;;;;5038312;28;20498;-59
2023/07/26 06:30:28;;;;;;;9.57;4.35;;;15.40;99.90;;;;;;5029592;28;20436;-60
2023/07/26 06:32:54;;;;;;;15.55;8.93;;;15.50;99.90;;;;;;5030820;28;20373;-57
2023/07/26 06:35:19;;;;;;;10.57;5.07;;;15.70;99.90;;;;;;5027975;28;20029;-60
2023/07/26 06:37:45;;;;;;;9.65;3.70;;;15.90;99.90;;;;;;5033130;28;20745;-59
2023/07/26 06:40:11;;;;;;;8.10;3.78;;;15.90;99.90;;;;;;5030334;28;20036;-60
2023/07/26 06:42:37;;;;;;;10.13;3.70;;;;;;;;;;5029341;28;20112;-57
2023/07/26 06:45:03;;;;;;;8.02;4.40;;;;;;;;;;5029307;28;20100;-58
2023/07/26 06:47:29;;;;;;;9.77;3.90;;;;;;;;;;5032455;28;20076;-57
2023/07/26 06:49:55;;;;;;;8.95;4.07;;;;;;;;;;5028387;28;20021;-56
2023/07/26 06:52:21;;;;;;;8.77;3.38;;;;;;;;;;5034220;28;20018;-59
2023/07/26 06:54:47;;;;;;;10.65;3.60;;;;;;;;;;5031004;28;20100;-59
2023/07/26 06:57:13;;;;;;;13.32;3.70;;;;;;;;;;5027493;28;20029;-58
2023/07/26 06:59:39;;;;;;;8.30;4.07;;;;;;;;;;5030300;28;20045;-55
2023/07/26 07:02:05;;;;;;;6.43;3.95;;;;;;;;;;5030855;28;20128;-57
2023/07/26 07:04:32;;;;;;;6.47;4.13;;;;;;;;;;5030487;28;20034;-59
2023/07/26 07:06:57;;;;;;;8.65;4.10;;;;;;;;;;5032596;28;20017;-59
2023/07/26 07:09:24;;;;;;;11.50;4.32;;;;;;;;;;5027566;28;20029;-58
2023/07/26 07:11:50;;;;;;;8.45;4.88;;;;;;;;;;5026066;28;20022;-59
2023/07/26 07:14:16;;;;;;;12.73;4.40;;;;;;;;;;5024876;28;20433;-58
2023/07/26 07:16:42;;;;;;;10.43;2.92;;;;;;;;;;5027793;28;20045;-59
2023/07/26 07:19:08;;;;;;;10.73;3.50;;;;;;;;;;5032186;28;20116;-57
2023/07/26 07:21:34;;;;;;;13.25;4.20;;;;;;;;;;5031386;28;20101;-59
2023/07/26 07:24:00;;;;;;;8.93;3.78;;;;;;;;;;5029025;28;20044;-59
2023/07/26 07:26:26;;;;;;;7.13;3.40;;;;;;;;;;5029217;28;20614;-59
2023/07/26 07:28:52;;;;;;;9.57;4.07;;;;;;;;;;5023129;28;20025;-59
2023/07/26 07:31:18;;;;;;;4.55;3.65;;;;;;;;;;5030292;28;20033;-59
2023/07/26 07:33:44;;;;;;;12.52;4.07;;;16.00;99.90;;;;;;5028152;28;20491;-59
2023/07/26 07:36:12;;;;;;;7.30;3.67;;;;;;;;;;5034051;28;20543;-56
2023/07/26 07:38:38;;;;;;;9.75;4.80;;;16.30;99.90;;;;;;5030800;28;20064;-59
2023/07/26 07:41:04;;;;;;;14.45;4.75;;;;;;;;;;5029958;28;20079;-57
2023/07/26 07:43:30;;;;;;;7.07;3.88;;;;;;;;;;5022334;28;20460;-55
2023/07/26 07:45:56;;;;;;;11.98;4.70;;;;;;;;;;5028764;28;20034;-57
2023/07/26 07:48:21;;;;;;;8.45;3.97;;;;;;;;;;5032395;28;20029;-60
2023/07/26 07:50:54;;;;;;;6.35;4.07;;;;;;;;;;5028657;28;20030;-59
2023/07/26 07:53:20;;;;;;;13.15;3.75;;;;;;;;;;5032844;28;20041;-58
2023/07/26 07:55:46;;;;;;;8.48;3.67;;;;;;;;;;5029023;28;20083;-58
2023/07/26 07:58:12;;;;;;;9.00;3.13;;;;;;;;;;5022375;28;20822;-57
2023/07/26 08:00:37;;;;;;;14.13;3.25;;;;;;;;;;5030744;28;20043;-57
2023/07/26 08:03:05;;;;;;;11.65;3.70;;;;;;;;;;5025855;28;20053;-59
2023/07/26 08:05:32;;;;;;;11.52;3.58;;;;;;;;;;5032884;28;20497;-54
2023/07/26 08:07:58;;;;;;;7.32;3.42;;;;;;;;;;5030729;28;20055;-54
2023/07/26 08:10:24;;;;;;;9.73;3.75;;;;;;;;;;5028427;28;20377;-57
2023/07/26 08:12:50;;;;;;;10.95;3.28;;;;;;;;;;5028579;28;20029;-56
2023/07/26 08:15:16;;;;;;;8.82;3.53;;;;;;;;;;5030021;28;20037;-57
2023/07/26 08:17:42;;;;;;;10.15;3.47;;;;;;;;;;5031201;28;20071;-58
2023/07/26 08:20:08;;;;;;;10.18;4.18;;;;;;;;;;5027922;28;20033;-58
2023/07/26 08:22:34;;;;;;;13.25;3.70;;;;;;;;;;5032165;28;20025;-57
2023/07/26 08:25:00;;;;;;;11.45;3.85;;;;;;;;;;5029482;28;20029;-58
2023/07/26 08:27:26;;;;;;;11.45;3.85;;;;;;;;;;5030271;28;20022;-58
2023/07/26 08:29:52;;;;;;;24.60;5.93;;;;;;;;;;5030960;28;20018;-55
2023/07/26 08:32:18;;;;;;;17.75;3.38;;;;;;;;;;5029695;28;20052;-57
2023/07/26 08:34:44;;;;;;;9.25;3.75;;;;;;;;;;5026703;28;20390;-55
2023/07/26 08:37:10;;;;;;;19.50;3.67;;;;;;;;;;5030394;28;20497;-58
2023/07/26 08:39:36;;;;;;;12.65;5.45;;;;;;;;;;5029693;28;20453;-57
2023/07/26 08:42:03;;;;;;;10.98;4.57;;;;;;;;;;5026000;28;20033;-58
2023/07/26 08:44:30;;;;;;;12.75;4.78;;;;;;;;;;5030201;28;20040;-58
2023/07/26 08:46:57;;;;;;;6.60;3.25;;;;;;;;;;5024269;28;21268;-57
2023/07/26 08:49:23;;;;;;;11.90;5.13;;;;;;;;;;5025763;28;20072;-53
2023/07/26 08:51:49;;;;;;;9.65;4.18;;;;;;;;;;5034930;28;20029;-56
2023/07/26 08:54:16;;;;;;;8.65;3.78;;;;;;;;;;5028934;28;20027;-56
2023/07/26 08:56:41;;;;;;;9.95;4.28;;;16.30;99.90;;;;;;5028866;28;20108;-57
2023/07/26 08:59:07;;;;;;;15.93;4.45;;;18.50;99.90;;;;;;5029970;28;20020;-54
2023/07/26 09:01:33;;;;;;;7.65;3.97;;;18.40;99.90;;;;;;5028369;28;20033;-55
2023/07/26 09:03:59;;;;;;;6.60;3.45;;;18.50;99.90;;;;;;5029288;28;20017;-56
2023/07/26 09:06:24;;;;;;;12.88;4.35;;;18.70;99.90;;;;;;5029752;28;20389;-55
2023/07/26 09:08:51;;;;;;;11.75;4.13;;;18.80;99.90;;;;;;5031034;28;20116;-57
2023/07/26 09:11:25;;;;;;;13.73;4.30;;;18.90;99.90;;;;;;5029675;28;20110;-57
2023/07/26 09:13:59;;;;;;;13.00;3.78;;;18.70;99.90;;;;;;5029017;28;20436;-54
2023/07/26 09:16:31;;;;;;;5.17;3.50;;;18.90;99.90;;;;;;5040240;28;20155;-55
2023/07/26 09:19:01;;;;;;;10.43;3.63;;;18.80;99.90;;;;;;5030404;28;20279;-57
2023/07/26 09:21:28;;;;;;;21.02;8.07;;;18.80;99.90;;;;;;5030203;28;20509;-56
2023/07/26 09:23:54;;;;;;;13.88;6.32;;;18.60;99.90;;;;;;5031117;28;20557;-56
2023/07/26 09:26:32;;;;;;;9.40;4.03;;;18.30;99.90;;;;;;5027710;28;20112;-57
2023/07/26 09:28:57;;;;;;;14.07;5.03;;;18.40;99.90;;;;;;5020764;28;20113;-57
2023/07/26 09:31:31;;;;;;;9.60;3.25;;;18.30;99.90;;;;;;5025018;28;20116;-56
2023/07/26 09:33:59;;;;;;;13.82;4.63;;;18.30;99.90;;;;;;5030748;28;20026;-58
2023/07/26 09:36:24;;;;;;;12.13;4.40;;;18.30;99.90;;;;;;5029763;28;20087;-57
2023/07/26 09:38:50;;;;;;;10.43;3.70;;;18.50;99.90;;;;;;5024274;28;20026;-58
2023/07/26 09:41:25;;;;;;;10.93;3.15;;;18.90;99.90;;;;;;5027848;28;20112;-56
2023/07/26 09:43:51;;;;;;;13.70;3.90;;;19.20;99.90;;;;;;5029436;28;20029;-58
2023/07/26 09:46:17;;;;;;;18.08;4.50;;;19.20;99.90;;;;;;5026719;28;20473;-58
2023/07/26 09:49:00;;;;;;;12.00;4.03;;;19.10;99.90;;;;;;5029639;28;20014;-58
2023/07/26 09:51:29;;;;;;;9.75;3.60;;;18.90;99.90;;;;;;5029370;28;20021;-58
2023/07/26 09:53:56;;;;;;;12.73;4.63;;;19.40;99.90;;;;;;5028892;28;20018;-54
2023/07/26 09:56:23;;;;;;;9.75;4.55;;;19.80;99.90;;;;;;5033189;28;20045;-59
2023/07/26 09:58:50;;;;;;;7.82;3.25;;;20.00;99.90;;;;;;5031831;28;20105;-57
2023/07/26 10:01:18;;;;;;;6.72;2.80;;;19.60;99.90;;;;;;5031886;28;20033;-59
2023/07/26 10:03:50;;;;;;;7.53;3.03;;;19.20;99.90;;;;;;5028737;28;20024;-57
2023/07/26 10:06:16;;;;;;;14.40;4.90;;;19.30;99.90;;;;;;5030830;28;20033;-57
2023/07/26 10:08:45;;;;;;;7.68;2.95;;;19.10;99.90;;;;;;5037494;28;20072;-53
2023/07/26 10:11:11;;;;;;;12.18;3.85;;;19.10;99.90;;;;;;5037740;28;20017;-54
2023/07/26 10:13:37;;;;;;;6.05;3.65;;;19.10;99.90;;;;;;5036213;28;20035;-57
2023/07/26 10:16:04;;;;;;;7.57;2.95;;;19.10;99.90;;;;;;5029234;28;20063;-57
2023/07/26 10:18:32;;;;;;;8.75;2.72;;;19.10;99.90;;;;;;5032914;28;21997;-59
2023/07/26 10:21:01;;;;;;;11.18;2.80;;;19.00;99.90;;;;;;5033678;28;20040;-58
2023/07/26 10:23:26;;;;;;;4.43;2.85;;;18.90;99.90;;;;;;5034180;28;20096;-58
2023/07/26 10:25:54;;;;;;;11.50;2.92;;;18.90;99.90;;;;;;5035373;28;20117;-58
2023/07/26 10:28:20;;;;;;;7.47;3.03;;;18.90;99.90;;;;;;5028117;28;20042;-58
2023/07/26 10:30:46;;;;;;;6.82;2.63;;;18.90;99.90;;;;;;5031792;28;20025;-58
2023/07/26 10:33:13;;;;;;;8.70;3.17;;;18.80;99.90;;;;;;5037690;28;20029;-54
2023/07/26 10:35:41;;;;;;;8.93;3.33;;;18.60;99.90;;;;;;5028836;28;20022;-58
2023/07/26 10:38:07;;;;;;;8.82;4.30;;;18.20;99.90;;;;;;5030358;28;20033;-58
2023/07/26 10:40:39;;;;;;;9.00;3.90;;;18.20;99.90;;;;;;5030791;28;20035;-55
2023/07/26 10:43:20;;;;;;;12.25;4.82;;;18.00;99.90;;;;;;5031109;28;20040;-59
2023/07/26 10:45:53;;;;;;;13.13;4.18;;;17.90;99.90;;;;;;5042466;28;20037;-54
2023/07/26 10:48:28;;;;;;;9.48;3.72;;;18.10;99.90;;;;;;5038208;28;20511;-55
2023/07/26 10:50:58;;;;;;;8.93;4.22;;;18.80;99.90;;;;;;5030058;28;20025;-57
2023/07/26 10:53:36;;;;;;;9.27;4.03;;;19.10;99.90;;;;;;5035293;28;20059;-57
2023/07/26 10:56:23;;;;;;;7.85;3.40;;;19.10;99.90;;;;;;5030845;28;20018;-59
2023/07/26 10:58:51;;;;;;;5.38;2.90;;;18.90;99.90;;;;;;5033967;28;20033;-56
2023/07/26 11:01:36;;;;;;;5.82;3.40;;;18.60;99.90;;;;;;5029104;28;20025;-55
2023/07/26 11:04:08;;;;;;;8.20;3.53;;;18.40;99.90;;;;;;5038778;28;20032;-57
2023/07/26 11:07:00;;;;;;;11.35;4.15;;;18.10;99.90;;;;;;5032892;28;20044;-55
2023/07/26 11:09:29;;;;;;;7.00;2.60;;;17.90;99.90;;;;;;5033198;28;20117;-57
2023/07/26 11:12:14;;;;;;;3.92;2.20;;;17.50;99.90;;;;;;5029506;28;20107;-58
2023/07/26 11:14:41;;;;;;;8.13;3.05;;;17.30;99.90;;;;;;5027924;28;20412;-59
2023/07/26 11:17:15;;;;;;;7.13;3.55;;;17.20;99.90;;;;;;5028919;28;20057;-59
2023/07/26 11:19:49;;;;;;;7.15;4.28;;;17.10;99.90;;;;;;5030690;28;20022;-59
2023/07/26 11:22:17;;;;;;;6.38;3.47;;;16.70;99.90;;;;;;5031793;28;20037;-57
2023/07/26 11:24:42;;;;;;;8.65;3.92;;;16.40;99.90;;;;;;5029987;28;20057;-56
2023/07/26 11:27:08;;;;;;;7.00;3.75;;;16.20;99.90;;;;;;5030142;28;20064;-57
2023/07/26 11:29:34;;;;;;;6.82;3.25;;;15.90;99.90;;;;;;5029540;28;20036;-59
2023/07/26 11:32:00;;;;;;;9.65;4.00;;;15.60;99.90;;;;;;5034657;28;20453;-59
2023/07/26 11:34:25;;;;;;;9.75;5.32;;;15.50;99.90;;;;;;5032137;28;20086;-59
2023/07/26 11:36:51;;;;;;;13.48;5.00;;;15.40;99.90;;;;;;5036062;28;20025;-56
2023/07/26 11:39:25;;;;;;;9.85;5.90;;;14.90;99.90;;;;;;5030953;28;20397;-56
2023/07/26 11:41:53;;;;;;;12.68;6.03;;;14.70;99.90;;;;;;5029624;28;20026;-58
2023/07/26 11:44:22;;;;;;;13.63;6.90;;;14.60;99.90;;;;;;5028452;28;20120;-56
2023/07/26 11:46:48;;;;;;;13.25;5.55;;;14.70;99.90;;;;;;5031138;28;20734;-53
2023/07/26 11:49:20;;;;;;;16.27;6.55;;;14.80;99.90;;;;;;5034498;28;21759;-57
2023/07/26 11:51:46;;;;;;;14.18;6.90;;;14.70;99.90;;;;;;5040250;28;20025;-59
2023/07/26 11:54:11;;;;;;;12.88;6.45;;;14.70;99.90;;;;;;5029385;28;20025;-59
2023/07/26 11:56:37;;;;;;;10.95;7.45;;;14.80;99.90;;;;;;5027469;28;20044;-60
2023/07/26 11:59:03;;;;;;;14.25;8.32;;;14.90;99.90;;;;;;5031896;28;20056;-60
2023/07/26 12:01:31;;;;;;;12.88;7.30;;;15.00;99.90;;;;;;5031157;28;20025;-60
2023/07/26 12:03:56;;;;;;;13.63;7.38;;;15.10;99.90;;;;;;5031468;28;20029;-57
2023/07/26 12:06:29;;;;;;;12.63;7.43;;;15.40;99.90;;;;;;5030374;28;20397;-55
2023/07/26 12:09:09;;;;;;;13.75;8.45;;;15.70;99.90;;;;;;5026750;28;20473;-58
2023/07/26 12:11:36;;;;;;;13.23;7.53;;;16.20;99.90;;;;;;5030358;28;20112;-58
2023/07/26 12:14:01;;;;;;;11.77;6.10;;;16.80;99.90;;;;;;5030095;28;20080;-59
2023/07/26 12:16:27;;;;;;;13.15;5.28;;;17.10;99.90;;;;;;5032062;28;20025;-57
2023/07/26 12:18:57;;;;;;;10.93;5.72;;;17.60;99.90;;;;;;5031256;28;20123;-58
2023/07/26 12:21:24;;;;;;;6.95;4.72;;;18.00;99.90;;;;;;5029477;28;20025;-60
2023/07/26 12:24:03;;;;;;;9.10;6.60;;;18.40;99.90;;;;;;5027617;28;20069;-59
2023/07/26 12:26:31;;;;;;;7.45;5.05;;;18.90;99.90;;;;;;5032634;28;20036;-59
2023/07/26 12:28:59;;;;;;;7.65;4.50;;;19.30;99.90;;;;;;5048544;28;20033;-56
2023/07/26 12:31:26;;;;;;;5.55;3.78;;;19.60;99.90;;;;;;5030029;28;20122;-59
2023/07/26 12:33:54;;;;;;;8.15;4.13;;;19.70;99.90;;;;;;5027213;28;20022;-58
2023/07/26 12:36:20;;;;;;;7.47;4.57;;;19.80;99.90;;;;;;5028763;28;20033;-58
2023/07/26 12:38:45;;;;;;;7.13;4.60;;;20.00;99.90;;;;;;5030988;28;20494;-58
2023/07/26 12:41:11;;;;;;;12.50;4.70;;;19.40;99.90;;;;;;5030729;28;20485;-59
2023/07/26 12:43:36;;;;;;;8.07;4.10;;;19.20;99.90;;;;;;5029016;28;20410;-59
2023/07/26 12:46:02;;;;;;;5.15;3.40;;;19.10;99.90;;;;;;5029971;28;20028;-60
2023/07/26 12:48:30;;;;;;;7.05;4.50;;;19.10;99.90;;;;;;5033533;28;20060;-57
2023/07/26 12:50:56;;;;;;;7.40;5.22;;;19.00;99.90;;;;;;5029075;28;20037;-56
2023/07/26 12:53:23;;;;;;;12.60;5.38;;;18.50;99.90;;;;;;5030307;28;20553;-59
2023/07/26 12:55:50;;;;;;;8.65;5.07;;;18.30;99.90;;;;;;5030471;28;20124;-58
2023/07/26 12:58:15;;;;;;;7.72;5.10;;;18.30;99.90;;;;;;5031945;28;20041;-58
2023/07/26 13:00:42;;;;;;;13.48;4.32;;;18.40;99.90;;;;;;5029884;28;20116;-59
2023/07/26 13:03:08;;;;;;;9.75;4.60;;;18.40;99.90;;;;;;5027173;28;20056;-54